Open Full Screen Window  High Contrast Mode
Wind Gusting 00 knots
11
January 18, 2018 10:34 PM EST
Weather Information
Wind Direction
  230 °
Wind Speed
  11 kt (13 mph)
Wind Gust
  00 kt (0 mph)
Altimeter
30.19 in
Visibility
10 SM
Temperature
-03° C
27° F
Dewpoint
-10° C
14° F
Humidity
59%
1hr Rain Fall
00.00 in.
24hr Rain Fall
00.00 in.
Sky Condition
Clear
VFR

METAR KI19 190334Z AUTO 23011KT 10SM CLR M03/M10 A3019 RMK AO2 T10321096

*Background is not an actual portrayal of the airport.